createdAt,value
2018-08-04T00:00:10.104Z,1003.87
2018-08-04T00:00:50.543Z,1003.89
2018-08-04T00:01:31.068Z,1003.88
2018-08-04T00:02:11.623Z,1003.86
2018-08-04T00:02:52.072Z,1003.88
2018-08-04T00:03:32.611Z,1003.85
2018-08-04T00:04:13.054Z,1003.89
2018-08-04T00:04:53.605Z,1003.9
2018-08-04T00:05:34.105Z,1003.91
2018-08-04T00:06:14.567Z,1003.95
2018-08-04T00:06:55.079Z,1003.85
2018-08-04T00:07:35.536Z,1003.86
2018-08-04T00:08:16.022Z,1003.85
2018-08-04T00:08:56.499Z,1003.87
2018-08-04T00:09:37.022Z,1003.86
2018-08-04T00:10:17.535Z,1003.85
2018-08-04T00:10:58.021Z,1003.85
2018-08-04T00:11:38.478Z,1003.85
2018-08-04T00:12:19.017Z,1003.78
2018-08-04T00:12:59.547Z,1003.82
2018-08-04T00:13:40.057Z,1003.78
2018-08-04T00:14:20.526Z,1003.78
2018-08-04T00:15:01.014Z,1003.75
2018-08-04T00:15:41.474Z,1003.77
2018-08-04T00:16:21.980Z,1003.77
2018-08-04T00:17:02.496Z,1003.75
2018-08-04T00:17:42.984Z,1003.73
2018-08-04T00:18:23.582Z,1003.72
2018-08-04T00:19:04.096Z,1003.7
2018-08-04T00:19:44.572Z,1003.72
2018-08-04T00:20:25.063Z,1003.73
2018-08-04T00:21:05.583Z,1003.74
2018-08-04T00:21:46.045Z,1003.74
2018-08-04T00:22:26.539Z,1003.7
2018-08-04T00:23:07.064Z,1003.71
2018-08-04T00:23:47.568Z,1003.69
2018-08-04T00:24:28.113Z,1003.69
2018-08-04T00:25:08.585Z,1003.63
2018-08-04T00:25:49.073Z,1003.68
2018-08-04T00:26:29.609Z,1003.66
2018-08-04T00:27:10.086Z,1003.68
2018-08-04T00:27:50.582Z,1003.62
2018-08-04T00:28:31.077Z,1003.67
2018-08-04T00:29:11.613Z,1003.64
2018-08-04T00:29:52.105Z,1003.67
2018-08-04T00:30:32.541Z,1003.66
2018-08-04T00:31:13.028Z,1003.67
2018-08-04T00:31:53.571Z,1003.65
2018-08-04T00:32:34.042Z,1003.67
2018-08-04T00:33:14.555Z,1003.66
2018-08-04T00:33:55.100Z,1003.66
2018-08-04T00:34:35.612Z,1003.66
2018-08-04T00:35:16.123Z,1003.63
2018-08-04T00:35:56.571Z,1003.63
2018-08-04T00:36:37.111Z,1003.64
2018-08-04T00:37:17.631Z,1003.68
2018-08-04T00:37:58.119Z,1003.63
2018-08-04T00:38:38.606Z,1003.6
2018-08-04T00:39:19.115Z,1003.64
2018-08-04T00:39:59.561Z,1003.6
2018-08-04T00:40:40.105Z,1003.6
2018-08-04T00:41:20.594Z,1003.63
2018-08-04T00:42:01.122Z,1003.6
2018-08-04T00:42:41.582Z,1003.62
2018-08-04T00:43:22.083Z,1003.6
2018-08-04T00:44:02.554Z,1003.57
2018-08-04T00:44:43.042Z,1003.58
2018-08-04T00:45:23.541Z,1003.58
2018-08-04T00:46:04.018Z,1003.55
2018-08-04T00:46:44.543Z,1003.58
2018-08-04T00:47:25.064Z,1003.57
2018-08-04T00:48:05.592Z,1003.58
2018-08-04T00:48:46.109Z,1003.55
2018-08-04T00:49:26.640Z,1003.56
2018-08-04T00:50:07.106Z,1003.54
2018-08-04T00:50:47.607Z,1003.54
2018-08-04T00:51:28.101Z,1003.53
2018-08-04T00:52:08.583Z,1003.52
2018-08-04T00:52:49.061Z,1003.53
2018-08-04T00:53:29.542Z,1003.52
2018-08-04T00:54:10.006Z,1003.55
2018-08-04T00:54:50.501Z,1003.54
2018-08-04T00:55:30.999Z,1003.54
2018-08-04T00:56:11.466Z,1003.53
2018-08-04T00:56:51.937Z,1003.53
2018-08-04T00:57:32.466Z,1003.55
2018-08-04T00:58:12.939Z,1003.52
2018-08-04T00:58:53.444Z,1003.52
2018-08-04T00:59:33.919Z,1003.51
2018-08-04T01:00:14.408Z,1003.53
2018-08-04T01:00:54.918Z,1003.55
2018-08-04T01:01:35.358Z,1003.54
2018-08-04T01:02:15.832Z,1003.55
2018-08-04T01:02:56.343Z,1003.55
2018-08-04T01:03:36.824Z,1003.54
2018-08-04T01:04:17.345Z,1003.54
2018-08-04T01:04:57.795Z,1003.56
2018-08-04T01:05:38.349Z,1003.58
2018-08-04T01:06:18.815Z,1003.58
2018-08-04T01:06:59.327Z,1003.55
2018-08-04T01:07:39.826Z,1003.55
2018-08-04T01:08:20.329Z,1003.52
2018-08-04T01:09:00.820Z,1003.56
2018-08-04T01:09:41.344Z,1003.55
2018-08-04T01:10:21.792Z,1003.51
2018-08-04T01:11:02.303Z,1003.49
2018-08-04T01:11:42.777Z,1003.49
2018-08-04T01:12:23.236Z,1003.47
2018-08-04T01:13:03.724Z,1003.51
2018-08-04T01:13:44.261Z,1003.52
2018-08-04T01:14:24.736Z,1003.5
2018-08-04T01:15:05.264Z,1003.53
2018-08-04T01:15:45.813Z,1003.5
2018-08-04T01:16:26.228Z,1003.5
2018-08-04T01:17:06.723Z,1003.51
2018-08-04T01:17:47.267Z,1003.52
2018-08-04T01:18:27.740Z,1003.53
2018-08-04T01:19:08.219Z,1003.5
2018-08-04T01:19:48.745Z,1003.47
2018-08-04T01:20:29.255Z,1003.46
2018-08-04T01:21:09.723Z,1003.45
2018-08-04T01:21:50.226Z,1003.4
2018-08-04T01:22:30.691Z,1003.43
2018-08-04T01:23:11.213Z,1003.38
2018-08-04T01:23:51.698Z,1003.44
2018-08-04T01:24:32.216Z,1003.47
2018-08-04T01:25:12.725Z,1003.41
2018-08-04T01:25:53.211Z,1003.46
2018-08-04T01:26:33.728Z,1003.44
2018-08-04T01:27:14.207Z,1003.45
2018-08-04T01:27:54.726Z,1003.47
2018-08-04T01:28:35.268Z,1003.49
2018-08-04T01:29:15.730Z,1003.49
2018-08-04T01:29:56.230Z,1003.49
2018-08-04T01:30:36.714Z,1003.49
2018-08-04T01:31:17.213Z,1003.53
2018-08-04T01:31:57.682Z,1003.49
2018-08-04T01:32:38.179Z,1003.49
2018-08-04T01:33:18.679Z,1003.5
2018-08-04T01:33:59.193Z,1003.51
2018-08-04T01:34:39.646Z,1003.52
2018-08-04T01:35:20.187Z,1003.51
2018-08-04T01:36:00.623Z,1003.51
2018-08-04T01:36:41.139Z,1003.5
2018-08-04T01:37:21.656Z,1003.49
2018-08-04T01:38:02.191Z,1003.51
2018-08-04T01:38:42.644Z,1003.54
2018-08-04T01:39:23.194Z,1003.47
2018-08-04T01:40:03.707Z,1003.48
2018-08-04T01:40:44.146Z,1003.46
2018-08-04T01:41:24.659Z,1003.48
2018-08-04T01:42:05.129Z,1003.5
2018-08-04T01:42:45.650Z,1003.48
2018-08-04T01:43:26.150Z,1003.5
2018-08-04T01:44:06.653Z,1003.49
2018-08-04T01:44:47.146Z,1003.47
2018-08-04T01:45:27.622Z,1003.53
2018-08-04T01:46:08.175Z,1003.47
2018-08-04T01:46:48.620Z,1003.5
2018-08-04T01:47:29.129Z,1003.49
2018-08-04T01:48:09.625Z,1003.48
2018-08-04T01:48:50.134Z,1003.52
2018-08-04T01:49:30.594Z,1003.54
2018-08-04T01:50:11.126Z,1003.48
2018-08-04T01:50:51.601Z,1003.51
2018-08-04T01:51:32.083Z,1003.46
2018-08-04T01:52:12.660Z,1003.45
2018-08-04T01:52:53.145Z,1003.44
2018-08-04T01:53:33.640Z,1003.45
2018-08-04T01:54:14.106Z,1003.41
2018-08-04T01:54:54.624Z,1003.4
2018-08-04T01:55:35.107Z,1003.45
2018-08-04T01:56:15.620Z,1003.41
2018-08-04T01:56:56.098Z,1003.42
2018-08-04T01:57:36.610Z,1003.38
2018-08-04T01:58:17.074Z,1003.43
2018-08-04T01:58:57.576Z,1003.42
2018-08-04T01:59:38.075Z,1003.44
2018-08-04T02:00:18.581Z,1003.41
2018-08-04T02:00:59.075Z,1003.39
2018-08-04T02:01:39.589Z,1003.43
2018-08-04T02:02:20.137Z,1003.36
2018-08-04T02:03:00.630Z,1003.38
2018-08-04T02:03:41.108Z,1003.4
2018-08-04T02:04:21.567Z,1003.36
2018-08-04T02:05:02.080Z,1003.33
2018-08-04T02:05:42.589Z,1003.38
2018-08-04T02:06:23.041Z,1003.36
2018-08-04T02:07:03.570Z,1003.34
2018-08-04T02:07:44.031Z,1003.3
2018-08-04T02:08:24.544Z,1003.35
2018-08-04T02:09:05.013Z,1003.36
2018-08-04T02:09:45.571Z,1003.32
2018-08-04T02:10:26.026Z,1003.3
2018-08-04T02:11:06.506Z,1003.34
2018-08-04T02:11:47.009Z,1003.34
2018-08-04T02:12:27.538Z,1003.33
2018-08-04T02:13:08.040Z,1003.32
2018-08-04T02:13:48.566Z,1003.34
2018-08-04T02:14:29.046Z,1003.29
2018-08-04T02:15:09.536Z,1003.34
2018-08-04T02:15:50.074Z,1003.33
2018-08-04T02:16:30.593Z,1003.31
2018-08-04T02:17:11.041Z,1003.29
2018-08-04T02:17:51.538Z,1003.28
2018-08-04T02:18:32.053Z,1003.29
2018-08-04T02:19:12.599Z,1003.26
2018-08-04T02:19:53.096Z,1003.29
2018-08-04T02:20:33.576Z,1003.27
2018-08-04T02:21:14.049Z,1003.27
2018-08-04T02:21:54.579Z,1003.31
2018-08-04T02:22:35.059Z,1003.26
2018-08-04T02:23:15.543Z,1003.27
2018-08-04T02:23:56.076Z,1003.27
2018-08-04T02:24:36.553Z,1003.27
2018-08-04T02:25:16.995Z,1003.27
2018-08-04T02:25:57.753Z,1003.25
2018-08-04T02:26:38.036Z,1003.31
2018-08-04T02:27:18.531Z,1003.27
2018-08-04T02:27:59.005Z,1003.24
2018-08-04T02:28:39.541Z,1003.23
2018-08-04T02:29:20.083Z,1003.22
2018-08-04T02:30:00.636Z,1003.23
2018-08-04T02:30:41.144Z,1003.26
2018-08-04T02:31:21.671Z,1003.24
2018-08-04T02:32:02.155Z,1003.24
2018-08-04T02:32:42.707Z,1003.24
2018-08-04T02:33:23.227Z,1003.24
2018-08-04T02:34:03.720Z,1003.28
2018-08-04T02:34:44.180Z,1003.28
2018-08-04T02:35:24.639Z,1003.29
2018-08-04T02:36:05.194Z,1003.29
2018-08-04T02:36:45.704Z,1003.29
2018-08-04T02:37:27.086Z,1003.32
2018-08-04T02:38:07.551Z,1003.31
2018-08-04T02:38:48.089Z,1003.31
2018-08-04T02:39:28.576Z,1003.3
2018-08-04T02:40:09.043Z,1003.31
2018-08-04T02:40:49.516Z,1003.28
2018-08-04T02:41:29.993Z,1003.3
2018-08-04T02:42:10.529Z,1003.29
2018-08-04T02:42:51.032Z,1003.25
2018-08-04T02:43:31.562Z,1003.26
2018-08-04T02:44:12.026Z,1003.25
2018-08-04T02:44:52.603Z,1003.27
2018-08-04T02:45:33.016Z,1003.26
2018-08-04T02:46:13.511Z,1003.3
2018-08-04T02:46:54.009Z,1003.26
2018-08-04T02:47:34.540Z,1003.3
2018-08-04T02:48:14.992Z,1003.25
2018-08-04T02:48:55.469Z,1003.27
2018-08-04T02:49:35.994Z,1003.24
2018-08-04T02:50:16.465Z,1003.26
2018-08-04T02:50:56.984Z,1003.28
2018-08-04T02:51:37.458Z,1003.25
2018-08-04T02:52:17.976Z,1003.26
2018-08-04T02:52:58.464Z,1003.27
2018-08-04T02:53:38.907Z,1003.24
2018-08-04T02:54:19.423Z,1003.24
2018-08-04T02:54:59.887Z,1003.23
2018-08-04T02:55:40.404Z,1003.22
2018-08-04T02:56:20.917Z,1003.22
2018-08-04T02:57:01.370Z,1003.23
2018-08-04T02:57:41.886Z,1003.24
2018-08-04T02:58:22.394Z,1003.26
2018-08-04T02:59:02.892Z,1003.27
2018-08-04T02:59:43.369Z,1003.26
2018-08-04T03:00:23.915Z,1003.29
2018-08-04T03:01:04.376Z,1003.32
2018-08-04T03:01:44.906Z,1003.3
2018-08-04T03:02:25.414Z,1003.33
2018-08-04T03:03:05.940Z,1003.31
2018-08-04T03:03:46.416Z,1003.29
2018-08-04T03:04:26.899Z,1003.29
2018-08-04T03:05:07.410Z,1003.3
2018-08-04T03:05:47.909Z,1003.29
2018-08-04T03:06:28.712Z,1003.29
2018-08-04T03:07:09.139Z,1003.34
2018-08-04T03:07:49.630Z,1003.31
2018-08-04T03:08:30.179Z,1003.34
2018-08-04T03:09:10.608Z,1003.33
2018-08-04T03:09:51.122Z,1003.34
2018-08-04T03:10:31.676Z,1003.35
2018-08-04T03:11:12.151Z,1003.33
2018-08-04T03:11:52.628Z,1003.35
2018-08-04T03:12:33.143Z,1003.34
2018-08-04T03:13:13.648Z,1003.3
2018-08-04T03:13:54.126Z,1003.32
2018-08-04T03:14:34.615Z,1003.31
2018-08-04T03:15:15.123Z,1003.33
2018-08-04T03:15:55.588Z,1003.36
2018-08-04T03:16:36.060Z,1003.33
2018-08-04T03:17:16.588Z,1003.32
2018-08-04T03:17:57.043Z,1003.33
2018-08-04T03:18:37.519Z,1003.35
2018-08-04T03:19:18.054Z,1003.36
2018-08-04T03:19:58.532Z,1003.34
2018-08-04T03:20:39.047Z,1003.36
2018-08-04T03:21:19.510Z,1003.3
2018-08-04T03:22:00.031Z,1003.34
2018-08-04T03:22:40.465Z,1003.34
2018-08-04T03:23:20.971Z,1003.33
2018-08-04T03:24:01.477Z,1003.33
2018-08-04T03:24:41.940Z,1003.35
2018-08-04T03:25:22.416Z,1003.35
2018-08-04T03:26:02.933Z,1003.38
2018-08-04T03:26:43.460Z,1003.37
2018-08-04T03:27:23.882Z,1003.33
2018-08-04T03:28:04.372Z,1003.36
2018-08-04T03:28:44.916Z,1003.38
2018-08-04T03:29:25.379Z,1003.43
2018-08-04T03:30:05.922Z,1003.41
2018-08-04T03:30:46.405Z,1003.44
2018-08-04T03:31:26.882Z,1003.43
2018-08-04T03:32:07.377Z,1003.4
2018-08-04T03:32:47.866Z,1003.42
2018-08-04T03:33:28.333Z,1003.46
2018-08-04T03:34:08.811Z,1003.43
2018-08-04T03:34:49.372Z,1003.47
2018-08-04T03:35:29.847Z,1003.47
2018-08-04T03:36:10.301Z,1003.46
2018-08-04T03:36:50.845Z,1003.54
2018-08-04T03:37:31.383Z,1003.46
2018-08-04T03:38:11.854Z,1003.5
2018-08-04T03:38:52.344Z,1003.49
2018-08-04T03:39:32.856Z,1003.48
2018-08-04T03:40:13.343Z,1003.48
2018-08-04T03:40:53.880Z,1003.52
2018-08-04T03:41:34.362Z,1003.49
2018-08-04T03:42:14.852Z,1003.52
2018-08-04T03:42:55.393Z,1003.48
2018-08-04T03:43:35.849Z,1003.5
2018-08-04T03:44:16.328Z,1003.51
2018-08-04T03:44:56.880Z,1003.47
2018-08-04T03:45:37.355Z,1003.48
2018-08-04T03:46:17.900Z,1003.48
2018-08-04T03:46:58.375Z,1003.5
2018-08-04T03:47:38.896Z,1003.51
2018-08-04T03:48:19.357Z,1003.47
2018-08-04T03:48:59.855Z,1003.51
2018-08-04T03:49:40.346Z,1003.5
2018-08-04T03:50:20.845Z,1003.56
2018-08-04T03:51:01.364Z,1003.51
2018-08-04T03:51:41.829Z,1003.52
2018-08-04T03:52:22.361Z,1003.53
2018-08-04T03:53:02.808Z,1003.5
2018-08-04T03:53:43.336Z,1003.53
2018-08-04T03:54:23.813Z,1003.54
2018-08-04T03:55:04.293Z,1003.55
2018-08-04T03:55:44.767Z,1003.54
2018-08-04T03:56:25.269Z,1003.55
2018-08-04T03:57:05.780Z,1003.52
2018-08-04T03:57:46.257Z,1003.55
2018-08-04T03:58:26.745Z,1003.5
2018-08-04T03:59:07.269Z,1003.53
2018-08-04T03:59:47.778Z,1003.55
2018-08-04T04:00:28.226Z,1003.55
2018-08-04T04:01:08.720Z,1003.56
2018-08-04T04:01:49.215Z,1003.56
2018-08-04T04:02:29.688Z,1003.57
2018-08-04T04:03:10.218Z,1003.58
2018-08-04T04:03:50.643Z,1003.56
2018-08-04T04:04:31.143Z,1003.58
2018-08-04T04:05:11.660Z,1003.57
2018-08-04T04:05:52.147Z,1003.61
2018-08-04T04:06:32.665Z,1003.57
2018-08-04T04:07:13.118Z,1003.58
2018-08-04T04:07:53.605Z,1003.56
2018-08-04T04:08:34.135Z,1003.58
2018-08-04T04:09:14.609Z,1003.57
2018-08-04T04:09:55.078Z,1003.58
2018-08-04T04:10:35.585Z,1003.59
2018-08-04T04:11:16.087Z,1003.6
2018-08-04T04:11:56.594Z,1003.57
2018-08-04T04:12:37.098Z,1003.62
2018-08-04T04:13:17.636Z,1003.64
2018-08-04T04:13:58.123Z,1003.61
2018-08-04T04:14:38.636Z,1003.6
2018-08-04T04:15:19.113Z,1003.63
2018-08-04T04:15:59.636Z,1003.64
2018-08-04T04:16:40.113Z,1003.6
2018-08-04T04:17:20.578Z,1003.65
2018-08-04T04:18:01.040Z,1003.65
2018-08-04T04:18:41.516Z,1003.66
2018-08-04T04:19:22.021Z,1003.66
2018-08-04T04:20:02.561Z,1003.66
2018-08-04T04:20:43.007Z,1003.69
2018-08-04T04:21:23.557Z,1003.67
2018-08-04T04:22:04.053Z,1003.67
2018-08-04T04:22:44.548Z,1003.69
2018-08-04T04:23:25.018Z,1003.69
2018-08-04T04:24:05.516Z,1003.67
2018-08-04T04:24:45.987Z,1003.67
2018-08-04T04:25:26.464Z,1003.68
2018-08-04T04:26:06.933Z,1003.74
2018-08-04T04:26:47.444Z,1003.74
2018-08-04T04:27:27.901Z,1003.76
2018-08-04T04:28:08.389Z,1003.75
2018-08-04T04:28:48.878Z,1003.78
2018-08-04T04:29:29.337Z,1003.77
2018-08-04T04:30:09.845Z,1003.77
2018-08-04T04:30:50.391Z,1003.8
2018-08-04T04:31:30.832Z,1003.79
2018-08-04T04:32:11.332Z,1003.78
2018-08-04T04:32:51.791Z,1003.81
2018-08-04T04:33:32.249Z,1003.82
2018-08-04T04:34:12.800Z,1003.82
2018-08-04T04:34:53.260Z,1003.82
2018-08-04T04:35:33.731Z,1003.85
2018-08-04T04:36:14.217Z,1003.84
2018-08-04T04:36:54.746Z,1003.86
2018-08-04T04:37:35.202Z,1003.89
2018-08-04T04:38:15.662Z,1003.85
2018-08-04T04:38:56.165Z,1003.87
2018-08-04T04:39:36.728Z,1003.87
2018-08-04T04:40:17.226Z,1003.84
2018-08-04T04:40:57.678Z,1003.83
2018-08-04T04:41:38.167Z,1003.84
2018-08-04T04:42:18.646Z,1003.86
2018-08-04T04:42:59.150Z,1003.85
2018-08-04T04:43:39.668Z,1003.9
2018-08-04T04:44:20.135Z,1003.92
2018-08-04T04:45:00.689Z,1003.89
2018-08-04T04:45:41.146Z,1003.91
2018-08-04T04:46:21.575Z,1003.94
2018-08-04T04:47:02.075Z,1003.89
2018-08-04T04:47:42.556Z,1003.94
2018-08-04T04:48:23.052Z,1003.93
2018-08-04T04:49:04.872Z,1003.95
2018-08-04T04:49:45.343Z,1003.96
2018-08-04T04:50:25.893Z,1003.95
2018-08-04T04:51:06.335Z,1003.98
2018-08-04T04:51:46.854Z,1003.97
2018-08-04T04:52:27.304Z,1003.96
2018-08-04T04:53:07.869Z,1003.99
2018-08-04T04:53:48.336Z,1003.96
2018-08-04T04:54:28.864Z,1003.99
2018-08-04T04:55:09.350Z,1003.99
2018-08-04T04:55:49.848Z,1003.98
2018-08-04T04:56:30.331Z,1004
2018-08-04T04:57:10.883Z,1003.98
2018-08-04T04:57:51.372Z,1003.99
2018-08-04T04:58:31.891Z,1004
2018-08-04T04:59:12.370Z,1004.02
2018-08-04T04:59:52.917Z,1004.03
2018-08-04T05:00:33.418Z,1004.02
2018-08-04T05:01:13.868Z,1004.04
2018-08-04T05:01:54.419Z,1004.02
2018-08-04T05:02:34.831Z,1004.07
2018-08-04T05:03:15.334Z,1004.04
2018-08-04T05:03:55.814Z,1004.05
2018-08-04T05:04:36.286Z,1004.05
2018-08-04T05:05:16.808Z,1004.03
2018-08-04T05:05:57.270Z,1004.03
2018-08-04T05:06:37.804Z,1004.02
2018-08-04T05:07:18.265Z,1003.99
2018-08-04T05:07:58.789Z,1003.99
2018-08-04T05:08:39.282Z,1003.96
2018-08-04T05:09:19.800Z,1004.01
2018-08-04T05:10:00.257Z,1003.99
2018-08-04T05:10:40.777Z,1004.01
2018-08-04T05:11:21.246Z,1004.01
2018-08-04T05:12:01.765Z,1004.01
2018-08-04T05:12:42.210Z,1003.99
2018-08-04T05:13:22.819Z,1004.04
2018-08-04T05:14:03.242Z,1004.07
2018-08-04T05:14:43.773Z,1004.07
2018-08-04T05:15:24.232Z,1004.08
2018-08-04T05:16:04.786Z,1004.11
2018-08-04T05:16:45.272Z,1004.09
2018-08-04T05:17:25.833Z,1004.07
2018-08-04T05:18:06.288Z,1004.11
2018-08-04T05:18:46.838Z,1004.08
2018-08-04T05:19:27.252Z,1004.06
2018-08-04T05:20:07.800Z,1004.08
2018-08-04T05:20:48.292Z,1004.09
2018-08-04T05:21:28.826Z,1004.12
2018-08-04T05:22:09.264Z,1004.13
2018-08-04T05:22:49.786Z,1004.12
2018-08-04T05:23:30.245Z,1004.11
2018-08-04T05:24:10.758Z,1004.09
2018-08-04T05:24:51.251Z,1004.13
2018-08-04T05:25:31.705Z,1004.15
2018-08-04T05:26:12.248Z,1004.1
2018-08-04T05:26:52.743Z,1004.14
2018-08-04T05:27:33.211Z,1004.12
2018-08-04T05:28:13.727Z,1004.14
2018-08-04T05:28:54.256Z,1004.13
2018-08-04T05:29:34.766Z,1004.17
2018-08-04T05:30:15.260Z,1004.12
2018-08-04T05:30:55.715Z,1004.15
2018-08-04T05:31:36.185Z,1004.12
2018-08-04T05:32:16.710Z,1004.15
2018-08-04T05:32:57.254Z,1004.15
2018-08-04T05:33:37.649Z,1004.19
2018-08-04T05:34:18.172Z,1004.14
2018-08-04T05:34:58.687Z,1004.16
2018-08-04T05:35:39.254Z,1004.15
2018-08-04T05:36:19.728Z,1004.15
2018-08-04T05:37:00.203Z,1004.16
2018-08-04T05:37:40.726Z,1004.16
2018-08-04T05:38:21.219Z,1004.17
2018-08-04T05:39:01.813Z,1004.18
2018-08-04T05:39:42.847Z,1004.2
2018-08-04T05:40:23.339Z,1004.19
2018-08-04T05:41:03.815Z,1004.19
2018-08-04T05:41:44.340Z,1004.17
2018-08-04T05:42:24.815Z,1004.19
2018-08-04T05:43:05.387Z,1004.19
2018-08-04T05:43:45.818Z,1004.18
2018-08-04T05:44:26.357Z,1004.18
2018-08-04T05:45:06.873Z,1004.16
2018-08-04T05:45:47.358Z,1004.15
2018-08-04T05:46:27.885Z,1004.2
2018-08-04T05:47:08.294Z,1004.18
2018-08-04T05:47:48.783Z,1004.14
2018-08-04T05:48:29.281Z,1004.16
2018-08-04T05:49:09.839Z,1004.14
2018-08-04T05:49:50.348Z,1004.17
2018-08-04T05:50:30.879Z,1004.17
2018-08-04T05:51:11.393Z,1004.15
2018-08-04T05:51:51.996Z,1004.17
2018-08-04T05:52:32.482Z,1004.19
2018-08-04T05:53:12.976Z,1004.18
2018-08-04T05:53:53.472Z,1004.21
2018-08-04T05:54:33.963Z,1004.23
2018-08-04T05:55:14.437Z,1004.18
2018-08-04T05:55:54.897Z,1004.22
2018-08-04T05:56:35.396Z,1004.24
2018-08-04T05:57:15.951Z,1004.21
2018-08-04T05:57:56.498Z,1004.27
2018-08-04T05:58:36.955Z,1004.27
2018-08-04T05:59:17.510Z,1004.25
2018-08-04T05:59:57.983Z,1004.24
2018-08-04T06:00:38.632Z,1004.25
2018-08-04T06:01:19.167Z,1004.21
2018-08-04T06:01:59.761Z,1004.2
2018-08-04T06:02:40.358Z,1004.2
2018-08-04T06:03:20.849Z,1004.14
2018-08-04T06:04:01.312Z,1004.18
2018-08-04T06:04:41.866Z,1004.15
2018-08-04T06:05:22.357Z,1004.14
2018-08-04T06:06:03.619Z,1004.13
2018-08-04T06:06:43.279Z,1004.16
2018-08-04T06:07:23.760Z,1004.14
2018-08-04T06:08:04.280Z,1004.17
2018-08-04T06:08:44.737Z,1004.17
2018-08-04T06:09:25.232Z,1004.19
2018-08-04T06:10:05.795Z,1004.26
2018-08-04T06:10:46.253Z,1004.24
2018-08-04T06:11:26.742Z,1004.22
2018-08-04T06:12:07.272Z,1004.24
2018-08-04T06:12:47.860Z,1004.25
2018-08-04T06:13:28.308Z,1004.23
2018-08-04T06:14:08.826Z,1004.27
2018-08-04T06:14:49.315Z,1004.27
2018-08-04T06:15:29.914Z,1004.32
2018-08-04T06:16:10.391Z,1004.29
2018-08-04T06:16:50.901Z,1004.34
2018-08-04T06:17:31.364Z,1004.25
2018-08-04T06:18:11.900Z,1004.29
2018-08-04T06:18:52.393Z,1004.34
2018-08-04T06:19:32.976Z,1004.29
2018-08-04T06:20:13.454Z,1004.29
2018-08-04T06:20:53.911Z,1004.3
2018-08-04T06:21:34.447Z,1004.33
2018-08-04T06:22:14.991Z,1004.32
2018-08-04T06:22:55.428Z,1004.35
2018-08-04T06:23:35.902Z,1004.33
2018-08-04T06:24:16.532Z,1004.34
2018-08-04T06:24:56.996Z,1004.35
2018-08-04T06:25:37.461Z,1004.32
2018-08-04T06:26:17.938Z,1004.32
2018-08-04T06:26:58.484Z,1004.35
2018-08-04T06:27:38.944Z,1004.31
2018-08-04T06:28:19.466Z,1004.33
2018-08-04T06:28:59.992Z,1004.3
2018-08-04T06:29:40.499Z,1004.3
2018-08-04T06:30:20.996Z,1004.3
2018-08-04T06:31:01.494Z,1004.26
2018-08-04T06:31:42.047Z,1004.31
2018-08-04T06:32:22.560Z,1004.3
2018-08-04T06:33:02.981Z,1004.35
2018-08-04T06:33:43.570Z,1004.29
2018-08-04T06:34:24.120Z,1004.32
2018-08-04T06:35:04.606Z,1004.39
2018-08-04T06:35:45.244Z,1004.38
2018-08-04T06:36:25.702Z,1004.39
2018-08-04T06:37:06.139Z,1004.37
2018-08-04T06:37:46.675Z,1004.4
2018-08-04T06:38:27.214Z,1004.39
2018-08-04T06:39:07.771Z,1004.35
2018-08-04T06:39:48.586Z,1004.38
2018-08-04T06:40:29.266Z,1004.39
2018-08-04T06:41:09.976Z,1004.4
2018-08-04T06:41:50.461Z,1004.39
2018-08-04T06:42:30.931Z,1004.36
2018-08-04T06:43:11.424Z,1004.41
2018-08-04T06:43:51.933Z,1004.39
2018-08-04T06:44:32.531Z,1004.42
2018-08-04T06:45:13.098Z,1004.35
2018-08-04T06:45:53.564Z,1004.38
2018-08-04T06:46:34.054Z,1004.37
2018-08-04T06:47:14.749Z,1004.36
2018-08-04T06:47:55.286Z,1004.36
2018-08-04T06:48:35.731Z,1004.34
2018-08-04T06:49:16.227Z,1004.37
2018-08-04T06:49:56.717Z,1004.36
2018-08-04T06:50:37.409Z,1004.34
2018-08-04T06:51:17.850Z,1004.37
2018-08-04T06:51:58.374Z,1004.36
2018-08-04T06:52:38.873Z,1004.35
2018-08-04T06:53:19.345Z,1004.35
2018-08-04T06:53:59.901Z,1004.38
2018-08-04T06:54:40.335Z,1004.38
2018-08-04T06:55:20.963Z,1004.34
2018-08-04T06:56:01.600Z,1004.39
2018-08-04T06:56:42.091Z,1004.37
2018-08-04T06:57:22.570Z,1004.33
2018-08-04T06:59:41.663Z,1004.34
2018-08-04T07:00:22.029Z,1004.37
2018-08-04T07:01:02.676Z,1004.35
2018-08-04T07:01:43.124Z,1004.35
2018-08-04T07:02:23.556Z,1004.34
2018-08-04T07:03:04.486Z,1004.31
2018-08-04T07:03:44.872Z,1004.36
2018-08-04T07:04:25.451Z,1004.3
2018-08-04T07:05:06.154Z,1004.33
2018-08-04T07:05:46.678Z,1004.33
2018-08-04T07:06:27.159Z,1004.32
2018-08-04T07:07:07.783Z,1004.29
2018-08-04T07:07:48.265Z,1004.34
2018-08-04T07:08:28.802Z,1004.35
2018-08-04T07:09:09.286Z,1004.32
2018-08-04T07:09:49.850Z,1004.29
2018-08-04T07:10:30.306Z,1004.29
2018-08-04T07:11:10.881Z,1004.3
2018-08-04T07:11:51.339Z,1004.29
2018-08-04T07:12:31.979Z,1004.27
2018-08-04T07:13:12.458Z,1004.28
2018-08-04T07:13:52.976Z,1004.27
2018-08-04T07:14:33.919Z,1004.25
2018-08-04T07:15:15.787Z,1004.26
2018-08-04T07:15:56.303Z,1004.31
2018-08-04T07:16:37.016Z,1004.24
2018-08-04T07:17:17.403Z,1004.23
2018-08-04T07:17:58.002Z,1004.27
2018-08-04T07:18:38.655Z,1004.27
2018-08-04T07:19:19.176Z,1004.29
2018-08-04T07:19:59.712Z,1004.29
2018-08-04T07:20:40.305Z,1004.24
2018-08-04T07:21:20.843Z,1004.3
2018-08-04T07:22:01.674Z,1004.31
2018-08-04T07:22:41.817Z,1004.33
2018-08-04T07:23:22.390Z,1004.33
2018-08-04T07:24:02.892Z,1004.33
2018-08-04T07:24:43.378Z,1004.37
2018-08-04T07:25:23.862Z,1004.33
2018-08-04T07:26:04.442Z,1004.35
2018-08-04T07:26:44.875Z,1004.33
2018-08-04T07:27:25.391Z,1004.31
2018-08-04T07:28:05.880Z,1004.33
2018-08-04T07:28:46.332Z,1004.34
2018-08-04T07:29:26.835Z,1004.33
2018-08-04T07:30:07.567Z,1004.32
2018-08-04T07:30:48.018Z,1004.35
2018-08-04T07:31:28.560Z,1004.31
2018-08-04T07:32:09.041Z,1004.33
2018-08-04T07:32:49.748Z,1004.31
2018-08-04T07:33:30.213Z,1004.34
2018-08-04T07:34:10.704Z,1004.33
2018-08-04T07:34:51.165Z,1004.32
2018-08-04T07:35:31.694Z,1004.32
2018-08-04T07:36:12.245Z,1004.3
2018-08-04T07:36:52.754Z,1004.33
2018-08-04T07:37:33.275Z,1004.32
2018-08-04T07:38:13.865Z,1004.31
2018-08-04T07:38:54.475Z,1004.3
2018-08-04T07:39:34.921Z,1004.34
2018-08-04T07:40:15.614Z,1004.31
2018-08-04T07:40:56.169Z,1004.31
2018-08-04T07:41:36.581Z,1004.34
2018-08-04T07:42:17.080Z,1004.37
2018-08-04T07:42:57.943Z,1004.34
2018-08-04T07:43:38.495Z,1004.31
2018-08-04T07:44:18.982Z,1004.35
2018-08-04T07:44:59.482Z,1004.31
2018-08-04T07:45:39.993Z,1004.31
2018-08-04T07:46:20.473Z,1004.34
2018-08-04T07:47:01.025Z,1004.36
2018-08-04T07:47:41.651Z,1004.39
2018-08-04T07:48:22.180Z,1004.38
2018-08-04T07:49:02.801Z,1004.36
2018-08-04T07:49:43.432Z,1004.36
2018-08-04T07:50:23.919Z,1004.35
2018-08-04T07:51:05.240Z,1004.34
2018-08-04T07:51:45.754Z,1004.39
2018-08-04T07:52:26.239Z,1004.36
2018-08-04T07:53:06.716Z,1004.35
2018-08-04T07:53:47.221Z,1004.36
2018-08-04T07:54:27.996Z,1004.36
2018-08-04T07:55:08.654Z,1004.36
2018-08-04T07:55:49.125Z,1004.36
2018-08-04T07:56:29.790Z,1004.36
2018-08-04T07:57:10.409Z,1004.37
2018-08-04T07:57:50.858Z,1004.34
2018-08-04T07:58:31.437Z,1004.36
2018-08-04T07:59:11.923Z,1004.36
2018-08-04T07:59:52.401Z,1004.37
2018-08-04T08:00:32.962Z,1004.39
2018-08-04T08:01:13.479Z,1004.38
2018-08-04T08:01:53.993Z,1004.34
2018-08-04T08:02:34.520Z,1004.34
2018-08-04T08:03:15.048Z,1004.35
2018-08-04T08:03:55.598Z,1004.36
2018-08-04T08:04:36.038Z,1004.33
2018-08-04T08:05:16.532Z,1004.34
2018-08-04T08:05:57.178Z,1004.33
2018-08-04T08:06:37.686Z,1004.3
2018-08-04T08:07:18.176Z,1004.33
2018-08-04T08:07:58.689Z,1004.35
2018-08-04T08:08:39.204Z,1004.35
2018-08-04T08:09:19.699Z,1004.35
2018-08-04T08:10:00.208Z,1004.34
2018-08-04T08:10:40.872Z,1004.32
2018-08-04T08:11:21.308Z,1004.29
2018-08-04T08:12:01.799Z,1004.36
2018-08-04T08:12:42.339Z,1004.36